Dibrugarh Airport
VEMN : now visible

Airfield :











YOU CAN JOIN US ON...

 
LOGIN :

Register | Disclaimer

   EN    FR    IT 

 









Legend :    VFR   Marginal VFR   IFR   Intensive IFR   Very Intensive IFR
Visi :
Ceiling :
>= 8 km
>= 3000ft
5 to 8 km
1000 to 3000 ft
1500m to 5 km
500 to 1000 ft
800 to 1500m
200 to 500 ft
< 800m
< 200 ft
Symbols :   Thunderstorms  Fog  Heavy snow  Heavy precipitations  Wind > 20 kt






- Airport Elevation : 362 ft
- IATA code : DIB


VEMN - Dibrugarh

CURRENT METAR :
  • 170330Z 06005KT 1500 BR SCT020 BKN100 20/16 Q1018 NOSIG

EXPIRED METARs :
  • 170300Z 07006KT 1500 BR SCT020 BKN100 20/16 Q1017 NOSIG
  • 170230Z 09003KT 1500 BR SCT020 BKN100 19/16 Q1017 NOSIG
  • 170200Z 10003KT 1000 BR SCT020 BKN100 18/16 Q1017 BECMG 1500 BR
  • 170130Z 07003KT 0800 FG SCT020 BKN100 17/16 Q1016 NOSIG
  • 170100Z 00000KT 0800 FG SCT020 BKN100 16/15 Q1016 NOSIG

TAF TAF VEMN
Valid from the 17 at 03:00 until the 17 at 12:00 UTC


170200Z 1703/1712 00000KT 1000 BR SCT020 BKN100
BECMG 1704/1706 05004KT 1500 BR
BECMG 1707/1711 05004KT 3000 HZ SCT020 BKN100



MET'MAP, your aeronautical weather chart ! - Copyright ORBIFLY December 2007 - Disclaimer

ORBIFLY MET'MAP TEAM :

Programming & Development : Alexandra Zaïnal
Concept & original design : Baudouin d'Aumeries
Assistance for programming : Marc-Olivier Méhu
Technical & hardware support : Manuel Goepfert

Contact : metmap@orbifly.com




SOURCES & CREDITS :

   NOAA       Earth
Advisory